Leland Grove, Illinois
Current Conditions -  °F | °C
As of 3:52 PM on Wednesday 26 Nov 2014 (Local Time) from KSPI Reporting Station
Light Snow Light Snow  
Wind Chill: 21°   Ceiling: 700
Heat Index: 31°   Visibility: 1.7mi
Dew Point: 29°   Wind: 14mph
Humidity: 92%   Direction: 90°E
Pressure: 30.04"   Gusts: NA
Location:  39.7725°N, 89.6857°W
Report Text: KSPI 262152Z 09012KT 1 3/4SM -SN BR OVC007 M01/M02 A3004 RMK AO2 SLP178 P0001 T10061017
Loading
Personal Weather Stations






























Interactive Weather Map New forecast layout! Learn more

10-Day Weather Forecast

Advertisements
Track Severe Weather on mobile